Victoria — D5IK5 — position and weather

sailwx.info

Track history (hours):
 
Tides and Currents Weather Stations Pressure Air Temp Water Temp Dewpoint Dewpoint Depression Visibility Wind Speed Wind Dir Waves Ship Positions

Victoria

Last reported at 2017-Dec-18 00:02 UTC. Time now 2017-Dec-18 09:06 UTC.
Position N 28°52' W 015°08'.

Length 190 m; draft 9.5 m.

Type: Cargo ship. MMSI: 636016923.

Date/timePositionNaut miles runAvg speedWind from/ knotsBaromVisibWave heightAir tempDewpointWater temp
2017-Dec-18 00:02N 28°52' W 015°08'0 3.2
2017-Dec-18 00:00N 28°52' W 015°08'1 1.5
2017-Dec-17 23:26N 28°53' W 015°09'4 8.7
2017-Dec-17 23:00N 28°50' W 015°10'510.7
2017-Dec-17 22:30N 28°44' W 015°12'510.9
2017-Dec-17 22:00N 28°39' W 015°13'510.8
2017-Dec-17 21:30N 28°34' W 015°15'510.9
2017-Dec-17 21:00N 28°29' W 015°16'611.0
2017-Dec-17 20:30N 28°23' W 015°18'510.7
2017-Dec-17 20:00N 28°18' W 015°20'510.9
2017-Dec-17 19:30N 28°13' W 015°21'510.4
2017-Dec-17 19:00N 28°08' W 015°23'2 3.0
2017-Dec-17 18:17N 28°06' W 015°24'0 0.3
2017-Dec-17 17:50N 28°06' W 015°24'0 0.0
2017-Dec-17 17:23N 28°06' W 015°24'0 0.0
2017-Dec-17 16:53N 28°06' W 015°24'0 0.0
2017-Dec-17 16:23N 28°06' W 015°24'0 0.0
2017-Dec-17 15:53N 28°06' W 015°24'0 0.0
2017-Dec-17 15:23N 28°06' W 015°24'0 0.0
2017-Dec-17 14:53N 28°06' W 015°24'0 0.1
2017-Dec-17 14:26N 28°06' W 015°24'0 0.0
2017-Dec-17 13:53N 28°06' W 015°24'0 0.0
2017-Dec-17 13:23N 28°06' W 015°24'0 0.0
2017-Dec-17 12:56N 28°06' W 015°24'0 0.2
2017-Dec-17 12:23N 28°06' W 015°24'1 2.2
2017-Dec-17 12:00N 28°06' W 015°23'1 2.4
2017-Dec-17 11:30N 28°06' W 015°22'1 1.5
2017-Dec-17 11:00N 28°05' W 015°22'0 0.9
2017-Dec-17 10:31N 28°05' W 015°21'3 6.3
2017-Dec-17 10:01N 28°02' W 015°20'5 9.8
2017-Dec-17 09:30N 27°57' W 015°18'611.6
2017-Dec-17 09:00N 27°52' W 015°18'611.7
2017-Dec-17 08:30N 27°46' W 015°20'1011.3
2017-Dec-17 07:40N 27°37' W 015°24'  
Track history (hours):
 
Tides and Currents Weather Stations Pressure Air Temp Water Temp Dewpoint Dewpoint Depression Visibility Wind Speed Wind Dir Waves Ship Positions

Victoria

Last reported at 2017-Dec-18 00:02 UTC. Time now 2017-Dec-18 09:06 UTC.
Position N 28°52' W 015°08'.

Length 190 m; draft 9.5 m.

Type: Cargo ship. MMSI: 636016923.

Date/timePositionNaut miles runAvg speedWind from/ knotsBaromVisibWave heightAir tempDewpointWater temp
2017-Dec-18 00:02N 28°52' W 015°08'0 3.2
2017-Dec-18 00:00N 28°52' W 015°08'1 1.5
2017-Dec-17 23:26N 28°53' W 015°09'4 8.7
2017-Dec-17 23:00N 28°50' W 015°10'510.7
2017-Dec-17 22:30N 28°44' W 015°12'510.9
2017-Dec-17 22:00N 28°39' W 015°13'510.8
2017-Dec-17 21:30N 28°34' W 015°15'510.9
2017-Dec-17 21:00N 28°29' W 015°16'611.0
2017-Dec-17 20:30N 28°23' W 015°18'510.7
2017-Dec-17 20:00N 28°18' W 015°20'510.9
2017-Dec-17 19:30N 28°13' W 015°21'510.4
2017-Dec-17 19:00N 28°08' W 015°23'2 3.0
2017-Dec-17 18:17N 28°06' W 015°24'0 0.3
2017-Dec-17 17:50N 28°06' W 015°24'0 0.0
2017-Dec-17 17:23N 28°06' W 015°24'0 0.0
2017-Dec-17 16:53N 28°06' W 015°24'0 0.0
2017-Dec-17 16:23N 28°06' W 015°24'0 0.0
2017-Dec-17 15:53N 28°06' W 015°24'0 0.0
2017-Dec-17 15:23N 28°06' W 015°24'0 0.0
2017-Dec-17 14:53N 28°06' W 015°24'0 0.1
2017-Dec-17 14:26N 28°06' W 015°24'0 0.0
2017-Dec-17 13:53N 28°06' W 015°24'0 0.0
2017-Dec-17 13:23N 28°06' W 015°24'0 0.0
2017-Dec-17 12:56N 28°06' W 015°24'0 0.2
2017-Dec-17 12:23N 28°06' W 015°24'1 2.2
2017-Dec-17 12:00N 28°06' W 015°23'1 2.4
2017-Dec-17 11:30N 28°06' W 015°22'1 1.5
2017-Dec-17 11:00N 28°05' W 015°22'0 0.9
2017-Dec-17 10:31N 28°05' W 015°21'3 6.3
2017-Dec-17 10:01N 28°02' W 015°20'5 9.8
2017-Dec-17 09:30N 27°57' W 015°18'611.6
2017-Dec-17 09:00N 27°52' W 015°18'611.7
2017-Dec-17 08:30N 27°46' W 015°20'1011.3
2017-Dec-17 07:40N 27°37' W 015°24'  

Dump ship's entire track history